Time;durP1;ratioP1;P1;durP2;ratioP2;P2;SDS_P1;SDS_P2;PMS_P1;PMS_P2;Temp;Humidity;BMP_temperature;BMP_pressure;BME280_temperature;BME280_humidity;BME280_pressure;Samples;Min_cycle;Max_cycle;Signal;HPM_P1;HPM_P2
2022/09/18 00:02:09;;;;;;;0.20;0.20;;;;;;;;;;5071807;28;20130;-91
2022/09/18 00:04:35;;;;;;;0.30;0.30;;;;;;;;;;5075677;28;20040;-91
2022/09/18 00:07:01;;;;;;;0.20;0.20;;;;;;;;;;5075648;28;20040;-93
2022/09/18 00:09:27;;;;;;;0.20;0.20;;;;;;;;;;5075234;28;20044;-91
2022/09/18 00:11:53;;;;;;;0.30;0.30;;;;;;;;;;5075971;28;20400;-92
2022/09/18 00:14:21;;;;;;;0.20;0.20;;;;;;;;;;5072675;28;20120;-93
2022/09/18 00:16:47;;;;;;;0.20;0.20;;;;;;;;;;5055497;28;20097;-91
2022/09/18 00:19:14;;;;;;;0.13;0.13;;;;;;;;;;5063932;28;20036;-93
2022/09/18 00:21:44;;;;;;;0.20;0.20;;;;;;;;;;5075714;28;20196;-92
2022/09/18 00:24:10;;;;;;;0.30;0.30;;;;;;;;;;5075328;28;20028;-92
2022/09/18 00:26:36;;;;;;;0.20;0.20;;;;;;;;;;5075523;28;20033;-92
2022/09/18 00:29:03;;;;;;;0.30;0.30;;;;;;;;;;5074837;28;20489;-91
2022/09/18 00:31:29;;;;;;;0.20;0.20;;;;;;;;;;5075095;28;20040;-92
2022/09/18 00:33:59;;;;;;;0.30;0.30;;;;;;;;;;5075033;28;20032;-93
2022/09/18 00:36:25;;;;;;;0.30;0.30;;;;;;;;;;5069971;28;20126;-92
2022/09/18 00:38:52;;;;;;;0.20;0.20;;;;;;;;;;5060050;28;20047;-92
2022/09/18 00:41:23;;;;;;;0.22;0.22;;;;;;;;;;5092273;28;20044;-92
2022/09/18 00:43:55;;;;;;;0.17;0.17;;;;;;;;;;5075142;28;20048;-92
2022/09/18 00:46:27;;;;;;;0.17;0.17;;;;;;;;;;5092060;28;20040;-93
2022/09/18 00:49:09;;;;;;;0.30;0.30;;;;;;;;;;5064579;28;20032;-91
2022/09/18 00:51:36;;;;;;;0.30;0.30;;;;;;;;;;5055171;28;20032;-92
2022/09/18 00:54:16;;;;;;;0.20;0.20;;;;;;;;;;5055391;28;20439;-93
2022/09/18 00:56:42;;;;;;;0.20;0.20;;;;;;;;;;5055439;28;20589;-93
2022/09/18 00:59:08;;;;;;;0.20;0.20;;;;;;;;;;5054820;28;20070;-92
2022/09/18 01:01:34;;;;;;;0.30;0.30;;;;;;;;;;5069968;28;20475;-93
2022/09/18 01:04:02;;;;;;;0.30;0.30;;;;;;;;;;5075288;28;20075;-94
2022/09/18 01:06:47;;;;;;;0.20;0.20;;;;;;;;;;5075065;28;20040;-94
2022/09/18 01:09:21;;;;;;;0.20;0.20;;;;;;;;;;5063220;28;20528;-94
2022/09/18 01:11:58;;;;;;;0.25;0.25;;;;;;;;;;5087044;28;20040;-93
2022/09/18 01:14:24;;;;;;;0.30;0.30;;;;;;;;;;5055073;28;20045;-93
2022/09/18 01:17:02;;;;;;;0.20;0.20;;;;;;;;;;5055244;28;20109;-93
2022/09/18 01:19:28;;;;;;;0.40;0.40;;;;;;;;;;5068619;28;20043;-93
2022/09/18 01:22:06;;;;;;;0.20;0.20;;;;;;;;;;5074885;28;20040;-94
2022/09/18 01:24:44;;;;;;;0.32;0.32;;;;;;;;;;5069732;28;20036;-93
2022/09/18 01:27:11;;;;;;;0.25;0.25;;;;;;;;;;5054973;28;20043;-94
2022/09/18 01:29:43;;;;;;;0.17;0.17;;;;;;;;;;5054839;28;20053;-94
2022/09/18 01:32:09;;;;;;;0.30;0.30;;;;;;;;;;5055166;28;20040;-93
2022/09/18 01:34:55;;;;;;;0.30;0.30;;;;;;;;;;5055131;28;20041;-93
2022/09/18 01:37:25;;;;;;;0.20;0.20;;;;;;;;;;5055207;28;20045;-94
2022/09/18 01:39:54;;;;;;;0.22;0.22;;;;;;;;;;5054571;28;20044;-93
2022/09/18 01:42:21;;;;;;;0.13;0.13;;;;;;;;;;5057659;28;20048;-94
2022/09/18 01:44:49;;;;;;;0.17;0.17;;;;;;;;;;5058574;28;20100;-92
2022/09/18 01:47:16;;;;;;;0.30;0.30;;;;;;;;;;5058263;28;20458;-93
2022/09/18 01:49:46;;;;;;;0.20;0.20;;;;;;;;;;5072972;28;20075;-92
2022/09/18 01:52:17;;;;;;;0.20;0.20;;;;;;;;;;5078339;28;20040;-93
2022/09/18 01:54:45;;;;;;;0.20;0.20;;;;;;;;;;5078538;28;20488;-92
2022/09/18 01:57:21;;;;;;;0.28;0.28;;;;;;;;;;5069954;28;20103;-93
2022/09/18 01:59:49;;;;;;;0.30;0.30;;;;;;;;;;5073682;28;20075;-92
2022/09/18 02:02:31;;;;;;;0.20;0.20;;;;;;;;;;5095071;28;20088;-93
2022/09/18 02:04:59;;;;;;;0.20;0.20;;;;;;;;;;5078363;28;20139;-93
2022/09/18 02:07:28;;;;;;;0.20;0.20;;;;;;;;;;5077881;28;20090;-93
2022/09/18 02:09:54;;;;;;;0.30;0.30;;;;;;;;;;5077473;28;20040;-92
2022/09/18 02:12:22;;;;;;;0.30;0.30;;;;;;;;;;5058319;28;20044;-93
2022/09/18 02:14:52;;;;;;;0.20;0.20;;;;;;;;;;5058002;28;20101;-93
2022/09/18 02:17:30;;;;;;;0.30;0.30;;;;;;;;;;5057998;28;20097;-93
2022/09/18 02:20:02;;;;;;;0.20;0.20;;;;;;;;;;5073547;28;20451;-93
2022/09/18 02:22:31;;;;;;;0.13;0.13;;;;;;;;;;5075120;28;20048;-91
2022/09/18 02:24:58;;;;;;;0.30;0.30;;;;;;;;;;5057815;28;20044;-92
2022/09/18 02:27:25;;;;;;;0.20;0.20;;;;;;;;;;5057551;28;20040;-92
2022/09/18 02:29:52;;;;;;;0.25;0.25;;;;;;;;;;5072280;28;20508;-92
2022/09/18 02:32:18;;;;;;;0.20;0.20;;;;;;;;;;5077646;28;20032;-92
2022/09/18 02:34:44;;;;;;;0.30;0.30;;;;;;;;;;5074886;28;20186;-92
2022/09/18 02:37:32;;;;;;;0.20;0.20;;;;;;;;;;5057618;28;20041;-91
2022/09/18 02:40:16;;;;;;;0.20;0.20;;;;;;;;;;5057367;28;20052;-92
2022/09/18 02:43:00;;;;;;;0.20;0.20;;;;;;;;;;5057247;28;20051;-92
2022/09/18 02:45:29;;;;;;;0.20;0.20;;;;;;;;;;5057382;28;20500;-92
2022/09/18 02:48:14;;;;;;;0.20;0.20;;;;;;;;;;5085278;28;20061;-92
2022/09/18 02:50:46;;;;;;;0.20;0.20;;;;;;;;;;5076687;28;20040;-92
2022/09/18 02:53:31;;;;;;;0.30;0.30;;;;;;;;;;5076796;28;20400;-92
2022/09/18 02:56:10;;;;;;;0.28;0.28;;;;;;;;;;5077289;28;20685;-92
2022/09/18 02:58:39;;;;;;;0.20;0.20;;;;;;;;;;5073300;28;20412;-92
2022/09/18 03:01:06;;;;;;;0.30;0.30;;;;;;;;;;5056772;28;20072;-91
2022/09/18 03:03:32;;;;;;;0.20;0.20;;;;;;;;;;5057215;28;20134;-93
2022/09/18 03:05:59;;;;;;;0.30;0.30;;;;;;;;;;5057094;28;20094;-91
2022/09/18 03:08:25;;;;;;;0.22;0.22;;;;;;;;;;5059061;28;20542;-91
2022/09/18 03:10:51;;;;;;;0.20;0.20;;;;;;;;;;5076921;28;20040;-91
2022/09/18 03:13:17;;;;;;;0.20;0.20;;;;;;;;;;5076726;28;20062;-92
2022/09/18 03:15:43;;;;;;;0.30;0.30;;;;;;;;;;5076881;28;20043;-93
2022/09/18 03:18:10;;;;;;;0.20;0.20;;;;;;;;;;5076293;28;20080;-92
2022/09/18 03:20:36;;;;;;;0.30;0.30;;;;;;;;;;5056216;28;20094;-91
2022/09/18 03:23:02;;;;;;;0.20;0.20;;;;;;;;;;5073211;28;20121;-91
2022/09/18 03:25:28;;;;;;;0.20;0.20;;;;;;;;;;5073120;28;20083;-91
2022/09/18 03:27:54;;;;;;;0.30;0.30;;;;;;;;;;5089965;28;20127;-92
2022/09/18 03:30:21;;;;;;;0.20;0.20;;;;;;;;;;5070342;28;20114;-92
2022/09/18 03:32:47;;;;;;;0.20;0.20;;;;;;;;;;5056538;28;20036;-92
2022/09/18 03:35:13;;;;;;;0.20;0.20;;;;;;;;;;5073126;28;20386;-92
2022/09/18 03:37:39;;;;;;;0.20;0.20;;;;;;;;;;5056620;28;20041;-92
2022/09/18 03:40:05;;;;;;;0.20;0.20;;;;;;;;;;5056453;28;20044;-92
2022/09/18 03:42:31;;;;;;;0.10;0.10;;;;;;;;;;5063689;28;20510;-92
2022/09/18 03:44:57;;;;;;;0.20;0.20;;;;;;;;;;5076036;28;20047;-93
2022/09/18 03:47:25;;;;;;;0.30;0.30;;;;;;;;;;5076025;28;20061;-93
2022/09/18 03:49:51;;;;;;;0.20;0.20;;;;;;;;;;5058974;28;20044;-92
2022/09/18 03:52:18;;;;;;;0.30;0.30;;;;;;;;;;5056083;28;20036;-93
2022/09/18 03:54:44;;;;;;;0.30;0.30;;;;;;;;;;5056110;28;20052;-93
2022/09/18 03:57:10;;;;;;;0.30;0.30;;;;;;;;;;5055985;28;20401;-93
2022/09/18 03:59:36;;;;;;;0.20;0.20;;;;;;;;;;5070093;28;20051;-93
2022/09/18 04:02:02;;;;;;;0.30;0.30;;;;;;;;;;5057443;28;20044;-93
2022/09/18 04:04:28;;;;;;;0.20;0.20;;;;;;;;;;5054843;28;20046;-93
2022/09/18 04:06:54;;;;;;;0.20;0.20;;;;;;;;;;5066062;28;20100;-94
2022/09/18 04:09:20;;;;;;;0.10;0.10;;;;;;;;;;5075218;28;20455;-93
2022/09/18 04:11:46;;;;;;;0.20;0.20;;;;;;;;;;5075914;28;20027;-92
2022/09/18 04:14:13;;;;;;;0.20;0.20;;;;;;;;;;5075840;28;20044;-93
2022/09/18 04:16:39;;;;;;;0.20;0.20;;;;;;;;;;5075952;28;20139;-92
2022/09/18 04:19:05;;;;;;;0.20;0.20;;;;;;;;;;5063893;28;20090;-92
2022/09/18 04:21:31;;;;;;;0.10;0.10;;;;;;;;;;5055786;28;20033;-92
2022/09/18 04:23:58;;;;;;;0.30;0.30;;;;;;;;;;5055781;28;20443;-91
2022/09/18 04:26:25;;;;;;;0.20;0.20;;;;;;;;;;5055636;28;20044;-92
2022/09/18 04:28:51;;;;;;;0.20;0.20;;;;;;;;;;5064169;28;20067;-93
2022/09/18 04:31:17;;;;;;;0.15;0.15;;;;;;;;;;5065044;28;20048;-93
2022/09/18 04:33:43;;;;;;;0.20;0.20;;;;;;;;;;5055524;28;20043;-92
2022/09/18 04:36:09;;;;;;;0.20;0.20;;;;;;;;;;5055579;28;20409;-92
2022/09/18 04:38:36;;;;;;;0.30;0.30;;;;;;;;;;5055275;28;20378;-93
2022/09/18 04:41:02;;;;;;;0.30;0.30;;;;;;;;;;5055581;28;20078;-92
2022/09/18 04:43:29;;;;;;;0.30;0.30;;;;;;;;;;5069480;28;20381;-92
2022/09/18 04:45:55;;;;;;;0.20;0.20;;;;;;;;;;5075437;28;20031;-91
2022/09/18 04:48:21;;;;;;;0.20;0.20;;;;;;;;;;5068388;28;20041;-92
2022/09/18 04:50:48;;;;;;;0.20;0.20;;;;;;;;;;5055179;28;20040;-92
2022/09/18 04:53:14;;;;;;;0.20;0.20;;;;;;;;;;5055080;28;20079;-93
2022/09/18 04:55:43;;;;;;;0.20;0.20;;;;;;;;;;5087576;28;20066;-92
2022/09/18 04:58:09;;;;;;;0.30;0.30;;;;;;;;;;5069973;28;20093;-92
2022/09/18 05:00:37;;;;;;;0.20;0.20;;;;;;;;;;5054936;28;20055;-92
2022/09/18 05:03:03;;;;;;;0.20;0.20;;;;;;;;;;5055120;28;20144;-91
2022/09/18 05:05:29;;;;;;;0.20;0.20;;;;;;;;;;5055112;28;20079;-90
2022/09/18 05:07:58;;;;;;;0.20;0.20;;;;;;;;;;5070002;28;20101;-90
2022/09/18 05:10:24;;;;;;;0.20;0.20;;;;;;;;;;5074904;28;20047;-90
2022/09/18 05:12:50;;;;;;;0.30;0.30;;;;;;;;;;5075002;28;20036;-89
2022/09/18 05:15:17;;;;;;;0.30;0.30;;;;;;;;;;5074714;28;20058;-89
2022/09/18 05:17:43;;;;;;;0.40;0.40;;;;;;;;;;5078541;28;20550;-89
2022/09/18 05:20:10;;;;;;;0.20;0.20;;;;;;;;;;5062406;28;20036;-90
2022/09/18 05:22:36;;;;;;;0.20;0.20;;;;;;;;;;5094261;28;20044;-90
2022/09/18 05:25:02;;;;;;;0.10;0.10;;;;;;;;;;5078543;28;20052;-90
2022/09/18 05:27:29;;;;;;;0.20;0.20;;;;;;;;;;5078624;28;20495;-90
2022/09/18 05:29:55;;;;;;;0.10;0.10;;;;;;;;;;5078493;28;20079;-89
2022/09/18 05:32:21;;;;;;;0.20;0.20;;;;;;;;;;5070902;28;20039;-90
2022/09/18 05:34:48;;;;;;;0.20;0.20;;;;;;;;;;5058445;28;20037;-90
2022/09/18 05:37:15;;;;;;;0.17;0.17;;;;;;;;;;5058521;28;20049;-90
2022/09/18 05:39:41;;;;;;;0.25;0.25;;;;;;;;;;5058662;28;20044;-89
2022/09/18 05:42:07;;;;;;;0.10;0.10;;;;;;;;;;5066413;28;20131;-89
2022/09/18 05:44:33;;;;;;;0.10;0.10;;;;;;;;;;5058600;28;20056;-89
2022/09/18 05:47:00;;;;;;;0.20;0.20;;;;;;;;;;5058037;28;20048;-90
2022/09/18 05:49:26;;;;;;;0.20;0.20;;;;;;;;;;5059540;28;20374;-90
2022/09/18 05:51:53;;;;;;;0.20;0.20;;;;;;;;;;5075060;28;20047;-89
2022/09/18 05:54:19;;;;;;;0.20;0.20;;;;;;;;;;5078289;28;20040;-89
2022/09/18 05:56:45;;;;;;;0.10;0.10;;;;;;;;;;5078148;28;20044;-89
2022/09/18 05:59:12;;;;;;;0.28;0.28;;;;;;;;;;5078022;28;20079;-89
2022/09/18 06:01:38;;;;;;;0.20;0.20;;;;;;;;;;5061927;28;20036;-90
2022/09/18 06:04:04;;;;;;;0.10;0.10;;;;;;;;;;5057954;28;20525;-89
2022/09/18 06:06:30;;;;;;;0.20;0.20;;;;;;;;;;5057924;28;20072;-88
2022/09/18 06:08:57;;;;;;;0.20;0.20;;;;;;;;;;5057625;28;20068;-89
2022/09/18 06:11:23;;;;;;;0.30;0.30;;;;;;;;;;5088109;28;20068;-89
2022/09/18 06:13:51;;;;;;;0.30;0.30;;;;;;;;;;5077749;28;20036;-90
2022/09/18 06:16:17;;;;;;;0.30;0.30;;;;;;;;;;5077653;28;20036;-90
2022/09/18 06:18:43;;;;;;;0.28;0.28;;;;;;;;;;5063874;28;20048;-89
2022/09/18 06:21:09;;;;;;;0.30;0.30;;;;;;;;;;5057721;28;20131;-89
2022/09/18 06:23:35;;;;;;;0.30;0.30;;;;;;;;;;5070129;28;20044;-89
2022/09/18 06:26:02;;;;;;;0.20;0.20;;;;;;;;;;5077271;28;20040;-89
2022/09/18 06:28:32;;;;;;;0.20;0.20;;;;;;;;;;5076280;28;20087;-90
2022/09/18 06:30:59;;;;;;;0.20;0.20;;;;;;;;;;5077355;28;20489;-89
2022/09/18 06:33:25;;;;;;;0.30;0.30;;;;;;;;;;5071831;28;20037;-89
2022/09/18 06:35:51;;;;;;;0.30;0.30;;;;;;;;;;5057241;28;20402;-89
2022/09/18 06:38:17;;;;;;;0.20;0.20;;;;;;;;;;5057346;28;20036;-89
2022/09/18 06:40:50;;;;;;;0.20;0.20;;;;;;;;;;5057117;28;20047;-88
2022/09/18 06:43:16;;;;;;;0.10;0.10;;;;;;;;;;5074154;28;20128;-89
2022/09/18 06:45:42;;;;;;;0.20;0.20;;;;;;;;;;5074099;28;20040;-89
2022/09/18 06:48:08;;;;;;;0.20;0.20;;;;;;;;;;5057158;28;20032;-88
2022/09/18 06:50:34;;;;;;;0.30;0.30;;;;;;;;;;5074014;28;20052;-89
2022/09/18 06:53:01;;;;;;;0.20;0.20;;;;;;;;;;5057558;28;20044;-89
2022/09/18 06:55:27;;;;;;;0.20;0.20;;;;;;;;;;5061096;28;20070;-90
2022/09/18 06:57:54;;;;;;;0.20;0.20;;;;;;;;;;5077069;28;20083;-90
2022/09/18 07:00:20;;;;;;;0.22;0.22;;;;;;;;;;5076802;28;20439;-89
2022/09/18 07:02:46;;;;;;;0.30;0.30;;;;;;;;;;5076894;28;20513;-89
2022/09/18 07:05:12;;;;;;;0.30;0.30;;;;;;;;;;5076839;28;20047;-90
2022/09/18 07:07:38;;;;;;;0.10;0.10;;;;;;;;;;5071538;28;20420;-89
2022/09/18 07:10:04;;;;;;;0.20;0.20;;;;;;;;;;5056629;28;20048;-89
2022/09/18 07:12:30;;;;;;;0.28;0.28;;;;;;;;;;5061562;28;20046;-89
2022/09/18 07:14:56;;;;;;;0.20;0.20;;;;;;;;;;5076163;28;20443;-89
2022/09/18 07:17:22;;;;;;;0.20;0.20;;;;;;;;;;5093574;28;20395;-89
2022/09/18 07:19:48;;;;;;;0.20;0.20;;;;;;;;;;5069614;28;20044;-88
2022/09/18 07:22:14;;;;;;;0.10;0.10;;;;;;;;;;5058141;28;20048;-89
2022/09/18 07:24:40;;;;;;;0.30;0.30;;;;;;;;;;5076181;28;20044;-89
2022/09/18 07:27:06;;;;;;;0.10;0.10;;;;;;;;;;5076137;28;20040;-89
2022/09/18 07:29:32;;;;;;;0.10;0.10;;;;;;;;;;5075465;28;20072;-88
2022/09/18 07:31:59;;;;;;;0.10;0.10;;;;;;;;;;5076262;28;20113;-88
2022/09/18 07:34:25;;;;;;;0.30;0.30;;;;;;;;;;5073045;28;20036;-89
2022/09/18 07:36:51;;;;;;;0.20;0.20;;;;;;;;;;5062998;28;20036;-89
2022/09/18 07:39:17;;;;;;;0.20;0.20;;;;;;;;;;5074314;28;20040;-89
2022/09/18 07:41:43;;;;;;;0.20;0.20;;;;;;;;;;5056019;28;20091;-88
2022/09/18 07:44:09;;;;;;;0.10;0.10;;;;;;;;;;5056079;28;20056;-89
2022/09/18 07:46:35;;;;;;;0.30;0.30;;;;;;;;;;5056057;28;20040;-89
2022/09/18 07:49:02;;;;;;;0.10;0.10;;;;;;;;;;5056430;28;20060;-88
2022/09/18 07:51:28;;;;;;;0.20;0.20;;;;;;;;;;5075391;28;20116;-90
2022/09/18 07:53:54;;;;;;;0.20;0.20;;;;;;;;;;5075203;28;20036;-89
2022/09/18 07:56:20;;;;;;;0.20;0.20;;;;;;;;;;5071342;28;20042;-89
2022/09/18 07:58:46;;;;;;;0.20;0.20;;;;;;;;;;5074933;28;20052;-89
2022/09/18 08:01:12;;;;;;;0.10;0.10;;;;;;;;;;5069850;28;20032;-89
2022/09/18 08:03:38;;;;;;;0.10;0.10;;;;;;;;;;5066510;28;20435;-89
2022/09/18 08:06:05;;;;;;;0.20;0.20;;;;;;;;;;5071315;28;20427;-88
2022/09/18 08:08:33;;;;;;;0.20;0.20;;;;;;;;;;5068913;28;20045;-88
2022/09/18 08:10:59;;;;;;;0.10;0.10;;;;;;;;;;5068673;28;20086;-89
2022/09/18 08:13:25;;;;;;;0.10;0.10;;;;;;;;;;5085251;28;20067;-89
2022/09/18 08:15:51;;;;;;;0.25;0.25;;;;;;;;;;5067336;28;20214;-89
2022/09/18 08:18:20;;;;;;;0.30;0.30;;;;;;;;;;5067952;28;20072;-88
2022/09/18 08:20:46;;;;;;;0.20;0.20;;;;;;;;;;5068503;28;20119;-90
2022/09/18 08:23:12;;;;;;;0.13;0.13;;;;;;;;;;5070639;28;20078;-88
2022/09/18 08:25:38;;;;;;;0.20;0.20;;;;;;;;;;5070418;28;20504;-88
2022/09/18 08:28:05;;;;;;;0.20;0.20;;;;;;;;;;5071724;28;20134;-88
2022/09/18 08:30:31;;;;;;;0.30;0.30;;;;;;;;;;5071196;28;20068;-89
2022/09/18 08:32:58;;;;;;;0.10;0.10;;;;;;;;;;5070941;28;20039;-89
2022/09/18 08:35:24;;;;;;;0.20;0.20;;;;;;;;;;5064064;28;20062;-88
2022/09/18 08:37:50;;;;;;;0.10;0.10;;;;;;;;;;5066476;28;20050;-89
2022/09/18 08:40:17;;;;;;;0.10;0.10;;;;;;;;;;5069163;28;20089;-88
2022/09/18 08:42:52;;;;;;;0.20;0.20;;;;;;;;;;5070170;28;20413;-88
2022/09/18 08:45:18;;;;;;;0.10;0.10;;;;;;;;;;5066635;28;20401;-88
2022/09/18 08:47:46;;;;;;;0.20;0.20;;;;;;;;;;5069330;28;20040;-89
2022/09/18 08:50:34;;;;;;;0.30;0.30;;;;;;;;;;5069947;28;20048;-89
2022/09/18 08:53:06;;;;;;;0.28;0.28;;;;;;;;;;5068734;28;20036;-89
2022/09/18 08:55:38;;;;;;;0.10;0.10;;;;;;;;;;5072114;28;20097;-89
2022/09/18 08:58:12;;;;;;;0.10;0.10;;;;;;;;;;5053494;28;20102;-89
2022/09/18 09:00:46;;;;;;;0.20;0.20;;;;;;;;;;5069817;28;20040;-89
2022/09/18 09:03:19;;;;;;;0.15;0.15;;;;;;;;;;5073213;28;20046;-89
2022/09/18 09:05:48;;;;;;;0.30;0.30;;;;;;;;;;5071033;28;20044;-89
2022/09/18 09:08:26;;;;;;;0.25;0.25;;;;;;;;;;5085383;28;20067;-89
2022/09/18 09:11:11;;;;;;;0.32;0.32;;;;;;;;;;5063355;28;20143;-90
2022/09/18 09:13:46;;;;;;;0.20;0.20;;;;;;;;;;5061556;28;20454;-89
2022/09/18 09:16:22;;;;;;;0.20;0.20;;;;;;;;;;5060520;28;20041;-88
2022/09/18 09:18:51;;;;;;;0.20;0.20;;;;;;;;;;5065996;28;20051;-88
2022/09/18 09:21:18;;;;;;;0.20;0.20;;;;;;;;;;5069165;28;20044;-88
2022/09/18 09:24:00;;;;;;;0.20;0.20;;;;;;;;;;5071252;28;20047;-88
2022/09/18 09:26:27;;;;;;;0.20;0.20;;;;;;;;;;5071079;28;20132;-89
2022/09/18 09:28:59;;;;;;;0.20;0.20;;;;;;;;;;5066527;28;20047;-88
2022/09/18 09:31:28;;;;;;;0.10;0.10;;;;;;;;;;5070497;28;20055;-89
2022/09/18 09:33:57;;;;;;;0.20;0.20;;;;;;;;;;5070935;28;20484;-89
2022/09/18 09:36:26;;;;;;;0.20;0.20;;;;;;;;;;5063326;28;20082;-88
2022/09/18 09:38:55;;;;;;;0.20;0.20;;;;;;;;;;5067879;28;20436;-88
2022/09/18 09:41:28;;;;;;;0.30;0.30;;;;;;;;;;5064225;28;20094;-88
2022/09/18 09:43:55;;;;;;;0.10;0.10;;;;;;;;;;5066124;28;20032;-88
2022/09/18 09:46:40;;;;;;;0.10;0.10;;;;;;;;;;5062280;28;20036;-88
2022/09/18 09:49:09;;;;;;;0.13;0.13;;;;;;;;;;5064193;28;20094;-88
2022/09/18 09:51:41;;;;;;;0.20;0.20;;;;;;;;;;5069120;28;20039;-88
2022/09/18 09:54:10;;;;;;;0.20;0.20;;;;;;;;;;5061695;28;20035;-89
2022/09/18 09:56:55;;;;;;;0.20;0.20;;;;;;;;;;5063150;28;20047;-87
2022/09/18 09:59:30;;;;;;;0.28;0.28;;;;;;;;;;5069972;28;20043;-89
2022/09/18 10:01:56;;;;;;;;;;;;;;;;;;5063622;28;20035;-88
2022/09/18 10:04:30;;;;;;;0.30;0.30;;;;;;;;;;5065456;28;19923;-90
2022/09/18 10:06:59;;;;;;;0.20;0.20;;;;;;;;;;5071300;28;20049;-88
2022/09/18 10:09:38;;;;;;;0.30;0.30;;;;;;;;;;5064738;28;20037;-87
2022/09/18 10:12:13;;;;;;;0.17;0.17;;;;;;;;;;5062324;28;20040;-88
2022/09/18 10:14:41;;;;;;;0.20;0.20;;;;;;;;;;5074630;28;20032;-88
2022/09/18 10:17:09;;;;;;;0.20;0.20;;;;;;;;;;5073781;28;20036;-88
2022/09/18 10:19:37;;;;;;;0.15;0.15;;;;;;;;;;5086777;28;20040;-89
2022/09/18 10:22:06;;;;;;;0.30;0.30;;;;;;;;;;5063354;28;20036;-87
2022/09/18 10:24:43;;;;;;;0.13;0.13;;;;;;;;;;5070386;28;20035;-89
2022/09/18 10:27:13;;;;;;;0.20;0.20;;;;;;;;;;5075137;28;20408;-86
2022/09/18 10:32:52;;;;;;;0.20;0.20;;;;;;;;;;5078277;28;20462;-87
2022/09/18 10:35:41;;;;;;;0.10;0.10;;;;;;;;;;5066919;28;20072;-87
2022/09/18 10:38:26;;;;;;;0.17;0.17;;;;;;;;;;5071570;28;20382;-87
2022/09/18 10:40:52;;;;;;;0.20;0.20;;;;;;;;;;5068118;28;20034;-87
2022/09/18 10:43:18;;;;;;;0.30;0.30;;;;;;;;;;5066868;28;20028;-88
2022/09/18 10:45:50;;;;;;;0.20;0.20;;;;;;;;;;5071782;28;20032;-88
2022/09/18 10:48:21;;;;;;;0.20;0.20;;;;;;;;;;5066159;28;20035;-87
2022/09/18 10:50:54;;;;;;;0.15;0.15;;;;;;;;;;5066837;28;20032;-87
2022/09/18 10:53:23;;;;;;;0.15;0.15;;;;;;;;;;5062441;28;20098;-87
2022/09/18 10:55:50;;;;;;;0.10;0.10;;;;;;;;;;5069876;28;20065;-88
2022/09/18 10:58:16;;;;;;;0.30;0.30;;;;;;;;;;5070838;28;20570;-87
2022/09/18 11:00:46;;;;;;;0.40;0.40;;;;;;;;;;5065201;28;20044;-87
2022/09/18 11:03:21;;;;;;;0.30;0.30;;;;;;;;;;5060943;28;20085;-87
2022/09/18 11:05:49;;;;;;;0.17;0.17;;;;;;;;;;5064915;28;20083;-87
2022/09/18 11:08:18;;;;;;;0.20;0.20;;;;;;;;;;5082483;28;20068;-87
2022/09/18 11:10:49;;;;;;;0.20;0.20;;;;;;;;;;5065325;28;20485;-87
2022/09/18 11:13:25;;;;;;;0.13;0.13;;;;;;;;;;5082084;28;20533;-87
2022/09/18 11:15:53;;;;;;;0.20;0.20;;;;;;;;;;5068713;28;20028;-88
2022/09/18 11:18:22;;;;;;;0.20;0.20;;;;;;;;;;5067085;28;20044;-87
2022/09/18 11:20:49;;;;;;;0.10;0.10;;;;;;;;;;5064635;28;20134;-87
2022/09/18 11:23:15;;;;;;;0.22;0.22;;;;;;;;;;5061433;28;20109;-87
2022/09/18 11:25:41;;;;;;;0.10;0.10;;;;;;;;;;5066556;28;20400;-87
2022/09/18 11:28:26;;;;;;;0.10;0.10;;;;;;;;;;5062619;28;20175;-88
2022/09/18 11:30:57;;;;;;;0.20;0.20;;;;;;;;;;5063563;28;20040;-87
2022/09/18 11:33:39;;;;;;;0.20;0.20;;;;;;;;;;5062919;28;20044;-87
2022/09/18 11:36:07;;;;;;;0.20;0.20;;;;;;;;;;5064040;28;20032;-87
2022/09/18 11:38:38;;;;;;;0.20;0.20;;;;;;;;;;5082415;28;20043;-88
2022/09/18 11:41:04;;;;;;;0.10;0.10;;;;;;;;;;5063731;28;20036;-87
2022/09/18 11:43:34;;;;;;;0.20;0.20;;;;;;;;;;5058895;28;20051;-87
2022/09/18 11:46:06;;;;;;;0.10;0.10;;;;;;;;;;5082713;28;20047;-88
2022/09/18 11:48:37;;;;;;;0.10;0.10;;;;;;;;;;5063507;28;20123;-87
2022/09/18 11:51:09;;;;;;;0.20;0.20;;;;;;;;;;5061891;28;20036;-87
2022/09/18 11:53:40;;;;;;;0.20;0.20;;;;;;;;;;5065585;28;20038;-87
2022/09/18 11:56:18;;;;;;;0.30;0.30;;;;;;;;;;5066672;28;20071;-88
2022/09/18 11:58:51;;;;;;;0.15;0.15;;;;;;;;;;5069629;28;20400;-88
2022/09/18 12:01:30;;;;;;;0.10;0.10;;;;;;;;;;5065977;28;20489;-87
2022/09/18 12:04:06;;;;;;;0.13;0.13;;;;;;;;;;5063963;28;20044;-88
2022/09/18 12:06:35;;;;;;;0.30;0.30;;;;;;;;;;5083361;28;20037;-88
2022/09/18 12:09:08;;;;;;;0.10;0.10;;;;;;;;;;5082371;28;20034;-88
2022/09/18 12:11:49;;;;;;;0.10;0.10;;;;;;;;;;5062100;28;20047;-88
2022/09/18 12:14:21;;;;;;;0.10;0.10;;;;;;;;;;5066888;28;20115;-88
2022/09/18 12:16:52;;;;;;;0.20;0.20;;;;;;;;;;5062763;28;20551;-88
2022/09/18 12:19:32;;;;;;;0.10;0.10;;;;;;;;;;5065396;28;20039;-87
2022/09/18 12:22:02;;;;;;;0.20;0.20;;;;;;;;;;5058306;28;20040;-88
2022/09/18 12:24:28;;;;;;;0.20;0.20;;;;;;;;;;5064899;28;20042;-88
2022/09/18 12:27:00;;;;;;;0.10;0.10;;;;;;;;;;5061791;28;20047;-88
2022/09/18 12:29:32;;;;;;;0.22;0.22;;;;;;;;;;5065606;28;20036;-88
2022/09/18 12:31:58;;;;;;;0.10;0.10;;;;;;;;;;5064605;28;20086;-87
2022/09/18 12:34:24;;;;;;;0.10;0.10;;;;;;;;;;5062254;28;20036;-88
2022/09/18 12:37:03;;;;;;;0.25;0.25;;;;;;;;;;5054055;28;20042;-88
2022/09/18 12:39:48;;;;;;;0.15;0.15;;;;;;;;;;5083336;28;20040;-87
2022/09/18 12:42:32;;;;;;;0.10;0.10;;;;;;;;;;5065449;28;20171;-88
2022/09/18 12:45:01;;;;;;;0.20;0.20;;;;;;;;;;5062941;28;20044;-87
2022/09/18 12:47:38;;;;;;;0.20;0.20;;;;;;;;;;5060934;28;20628;-86
2022/09/18 12:50:07;;;;;;;0.20;0.20;;;;;;;;;;5063197;28;20124;-87
2022/09/18 12:52:48;;;;;;;0.32;0.32;;;;;;;;;;5082222;28;20431;-88
2022/09/18 12:55:27;;;;;;;0.17;0.17;;;;;;;;;;5065147;28;20508;-87
2022/09/18 12:57:53;;;;;;;0.10;0.10;;;;;;;;;;5057680;28;20067;-87
2022/09/18 13:00:21;;;;;;;0.10;0.10;;;;;;;;;;5065582;28;20032;-87
2022/09/18 13:02:53;;;;;;;0.10;0.10;;;;;;;;;;5063755;28;20176;-88
2022/09/18 13:05:29;;;;;;;0.20;0.20;;;;;;;;;;5059626;28;20352;-87
2022/09/18 13:08:14;;;;;;;0.10;0.10;;;;;;;;;;5058753;28;20043;-87
2022/09/18 13:10:42;;;;;;;0.10;0.10;;;;;;;;;;5062698;28;20036;-87
2022/09/18 13:13:18;;;;;;;0.10;0.10;;;;;;;;;;5061123;28;20041;-87
2022/09/18 13:15:46;;;;;;;0.10;0.10;;;;;;;;;;5062213;28;20068;-88
2022/09/18 13:18:12;;;;;;;0.10;0.10;;;;;;;;;;5065962;28;20058;-88
2022/09/18 13:20:40;;;;;;;0.10;0.10;;;;;;;;;;5071307;28;20031;-88
2022/09/18 13:23:13;;;;;;;0.17;0.17;;;;;;;;;;5065945;28;20032;-87
2022/09/18 13:25:40;;;;;;;0.10;0.10;;;;;;;;;;5069828;28;20036;-89
2022/09/18 13:28:13;;;;;;;0.17;0.17;;;;;;;;;;5071497;28;20032;-88
2022/09/18 13:30:39;;;;;;;0.20;0.20;;;;;;;;;;5068648;28;20040;-88
2022/09/18 13:33:05;;;;;;;0.20;0.20;;;;;;;;;;5066563;28;20396;-88
2022/09/18 13:35:32;;;;;;;0.10;0.10;;;;;;;;;;5060699;28;20050;-88
2022/09/18 13:38:08;;;;;;;0.30;0.30;;;;;;;;;;5067467;28;20544;-88
2022/09/18 13:44:21;;;;;;;0.10;0.10;;;;;;;;;;5074233;28;20055;-88
2022/09/18 13:46:48;;;;;;;0.10;0.10;;;;;;;;;;5080410;28;20040;-88
2022/09/18 13:49:18;;;;;;;0.10;0.10;;;;;;;;;;5065920;28;20094;-88
2022/09/18 13:51:44;;;;;;;0.32;0.32;;;;;;;;;;5070438;28;20399;-89
2022/09/18 13:54:10;;;;;;;0.20;0.20;;;;;;;;;;5070139;28;20040;-88
2022/09/18 13:56:55;;;;;;;0.10;0.10;;;;;;;;;;5068659;28;20035;-88
2022/09/18 13:59:22;;;;;;;0.10;0.10;;;;;;;;;;5066348;28;20083;-88
2022/09/18 14:01:55;;;;;;;0.17;0.17;;;;;;;;;;5071709;28;20040;-89
2022/09/18 14:04:39;;;;;;;0.28;0.28;;;;;;;;;;5067711;28;20090;-88
2022/09/18 14:07:18;;;;;;;0.17;0.17;;;;;;;;;;5063688;28;20170;-88
2022/09/18 14:09:52;;;;;;;0.20;0.20;;;;;;;;;;5069294;28;20052;-87
2022/09/18 14:12:18;;;;;;;0.20;0.20;;;;;;;;;;5066979;28;20036;-88
2022/09/18 14:14:56;;;;;;;0.30;0.30;;;;;;;;;;5064730;28;20089;-88
2022/09/18 14:17:24;;;;;;;0.20;0.20;;;;;;;;;;5065521;28;20032;-87
2022/09/18 14:19:58;;;;;;;0.20;0.20;;;;;;;;;;5064489;28;20048;-87
2022/09/18 14:22:31;;;;;;;0.10;0.10;;;;;;;;;;5065219;28;20039;-88
2022/09/18 14:24:59;;;;;;;0.20;0.20;;;;;;;;;;5067881;28;20032;-89
2022/09/18 14:27:31;;;;;;;0.20;0.20;;;;;;;;;;5067946;28;20039;-88
2022/09/18 14:29:58;;;;;;;0.10;0.10;;;;;;;;;;5066674;28;20505;-88
2022/09/18 14:32:25;;;;;;;0.20;0.20;;;;;;;;;;5067179;28;20032;-88
2022/09/18 14:34:53;;;;;;;0.20;0.20;;;;;;;;;;5081764;28;20516;-88
2022/09/18 14:37:23;;;;;;;0.10;0.10;;;;;;;;;;5066633;28;20036;-88
2022/09/18 14:39:49;;;;;;;0.10;0.10;;;;;;;;;;5064181;28;20036;-87
2022/09/18 14:42:32;;;;;;;0.20;0.20;;;;;;;;;;5067839;28;20028;-89
2022/09/18 14:45:13;;;;;;;0.10;0.10;;;;;;;;;;5062249;28;20044;-85
2022/09/18 14:47:40;;;;;;;0.20;0.20;;;;;;;;;;5064866;28;20043;-86
2022/09/18 14:50:23;;;;;;;0.20;0.20;;;;;;;;;;5061348;28;20181;-85
2022/09/18 14:52:50;;;;;;;0.10;0.10;;;;;;;;;;5082288;28;20048;-86
2022/09/18 14:55:25;;;;;;;0.20;0.20;;;;;;;;;;5064482;28;20036;-85
2022/09/18 14:58:04;;;;;;;0.17;0.17;;;;;;;;;;5066868;28;20044;-86
2022/09/18 15:00:31;;;;;;;0.10;0.10;;;;;;;;;;5065307;28;20036;-86
2022/09/18 15:02:59;;;;;;;0.20;0.20;;;;;;;;;;5080854;28;20040;-86
2022/09/18 15:05:26;;;;;;;0.10;0.10;;;;;;;;;;5087174;28;20036;-86